PROFILE

 METAR AND TAF INFORMATION
ADDS - METARS form results

(0123 UTC 18 September 2022)
http://aviationweather.gov/metar/data/
 
GVAC 180100Z 04011KT 9999 BKN013 26/21 Q1012 NOSIG
TAF GVAC 172300Z 1800/1906 06015KT 9999 BKN013 TEMPO 1812/1820 SCT014 

 AIRPORT MAP

 RUNWAY INFORMATION
Runway 01 Runway length 10735 ft Runway width 148 ft
Runway elevation 176 ft Runway displaced threshold 885 ft Runway heading 358
Runway 19 Runway length 10735 ft Runway width 148 ft
Runway elevation 170 ft Runway displaced threshold 0 ft Runway heading 178
Runway 07 Runway length 4921 ft Runway width 148 ft
Runway elevation 177 ft Runway displaced threshold 0 ft Runway heading 58
Runway 25 Runway length 4921 ft Runway width 148 ft
Runway elevation 177 ft Runway displaced threshold 0 ft Runway heading 238

 AIRPORT FREQUENCIES
Type A/G Name A/G Frequency 345.2 MHZ
Type APP Name SAL APP Frequency 119.7 MHZ
Type TWR Name TWR Frequency 119.7 MHZ

 AIRPORT NEAR NAVIGATION AIDS
Type VOR-DME Name Sal Frequency 115300 KHZ
Type NDB Name Sal Frequency 274 KHZ